createdAt,value
2023-02-23T00:02:19.914Z,19.73
2023-02-23T00:04:48.250Z,19.53
2023-02-23T00:07:19.943Z,19.53
2023-02-23T00:09:48.529Z,20.27
2023-02-23T00:12:17.215Z,21.43
2023-02-23T00:14:46.150Z,19.07
2023-02-23T00:17:17.654Z,19.43
2023-02-23T00:19:49.317Z,19.77
2023-02-23T00:22:19.453Z,20.30
2023-02-23T00:24:48.209Z,18.30
2023-02-23T00:27:20.952Z,19.17
2023-02-23T00:29:51.016Z,18.00
2023-02-23T00:32:21.472Z,18.37
2023-02-23T00:34:50.682Z,19.13
2023-02-23T00:37:23.024Z,19.73
2023-02-23T00:39:52.120Z,19.13
2023-02-23T00:42:20.491Z,18.80
2023-02-23T00:44:49.425Z,18.70
2023-02-23T00:47:17.925Z,19.90
2023-02-23T00:49:46.758Z,18.17
2023-02-23T00:52:15.678Z,18.70
2023-02-23T00:54:45.714Z,18.70
2023-02-23T00:57:14.113Z,18.67
2023-02-23T00:59:42.591Z,18.40
2023-02-23T01:02:11.061Z,19.60
2023-02-23T01:04:39.472Z,19.57
2023-02-23T01:07:12.972Z,20.23
2023-02-23T01:09:42.175Z,21.50
2023-02-23T01:12:11.996Z,18.67
2023-02-23T01:14:40.585Z,19.77
2023-02-23T01:17:09.105Z,19.43
2023-02-23T01:19:37.523Z,20.00
2023-02-23T01:22:05.997Z,19.87
2023-02-23T01:24:34.410Z,20.60
2023-02-23T01:27:02.803Z,21.43
2023-02-23T01:29:32.728Z,20.73
2023-02-23T01:32:04.208Z,18.57
2023-02-23T01:34:33.201Z,20.50
2023-02-23T01:37:01.704Z,19.70
2023-02-23T01:39:30.224Z,18.40
2023-02-23T01:41:58.658Z,20.03
2023-02-23T01:45:19.664Z,18.90
2023-02-23T01:47:48.278Z,18.30
2023-02-23T01:50:17.934Z,19.37
2023-02-23T01:52:48.198Z,19.03
2023-02-23T01:55:23.822Z,21.03
2023-02-23T01:57:59.529Z,20.10
2023-02-23T02:00:31.968Z,21.30
2023-02-23T02:03:02.648Z,21.30
2023-02-23T02:05:31.730Z,20.20
2023-02-23T02:08:01.443Z,20.30
2023-02-23T02:10:45.883Z,21.97
2023-02-23T02:13:22.324Z,19.73
2023-02-23T02:16:23.107Z,19.93
2023-02-23T02:19:33.709Z,19.63
2023-02-23T02:23:00.186Z,20.67
2023-02-23T02:25:56.219Z,20.80
2023-02-23T02:29:11.422Z,19.10
2023-02-23T02:32:32.614Z,18.97
2023-02-23T02:36:10.866Z,20.10
2023-02-23T02:38:54.082Z,18.00
2023-02-23T02:41:37.534Z,19.90
2023-02-23T02:44:16.514Z,21.20
2023-02-23T02:46:51.321Z,21.13
2023-02-23T02:49:27.970Z,21.40
2023-02-23T02:52:02.768Z,21.23
2023-02-23T02:54:36.843Z,21.63
2023-02-23T02:57:07.450Z,22.20
2023-02-23T03:00:04.459Z,22.13
2023-02-23T03:02:53.268Z,20.87
2023-02-23T03:05:44.160Z,22.07
2023-02-23T03:08:40.340Z,20.53
2023-02-23T03:11:30.968Z,22.33
2023-02-23T03:14:34.564Z,21.20
2023-02-23T03:17:29.598Z,20.23
2023-02-23T03:20:23.519Z,21.30
2023-02-23T03:23:16.190Z,22.57
2023-02-23T03:26:10.872Z,20.37
2023-02-23T03:29:08.403Z,21.57
2023-02-23T03:32:01.524Z,20.20
2023-02-23T03:34:55.798Z,21.20
2023-02-23T03:37:47.203Z,22.20
2023-02-23T03:40:38.073Z,23.87
2023-02-23T03:43:29.869Z,20.10
2023-02-23T03:46:20.591Z,23.37
2023-02-23T03:49:09.574Z,22.37
2023-02-23T03:51:58.980Z,21.67
2023-02-23T03:54:52.461Z,22.30
2023-02-23T03:57:41.534Z,21.97
2023-02-23T04:00:34.441Z,21.13
2023-02-23T04:03:24.304Z,21.03
2023-02-23T04:06:13.547Z,22.40
2023-02-23T04:09:00.232Z,21.63
2023-02-23T04:11:56.082Z,20.70
2023-02-23T04:14:29.697Z,19.47
2023-02-23T04:16:57.708Z,22.47
2023-02-23T04:19:29.937Z,20.83
2023-02-23T04:21:58.242Z,23.57
2023-02-23T04:24:26.722Z,21.73
2023-02-23T04:26:55.202Z,19.87
2023-02-23T04:29:24.208Z,21.70
2023-02-23T04:31:54.108Z,21.73
2023-02-23T04:34:22.680Z,21.67
2023-02-23T04:36:52.404Z,20.90
2023-02-23T04:39:20.933Z,21.63
2023-02-23T04:41:50.529Z,20.77
2023-02-23T04:44:19.275Z,20.03
2023-02-23T04:46:47.835Z,19.93
2023-02-23T04:49:16.599Z,20.63
2023-02-23T04:51:45.170Z,20.13
2023-02-23T04:54:15.217Z,21.90
2023-02-23T04:56:44.168Z,19.77
2023-02-23T04:59:13.423Z,21.07
2023-02-23T05:01:42.265Z,21.00
2023-02-23T05:04:11.097Z,20.37
2023-02-23T05:06:39.862Z,22.23
2023-02-23T05:09:08.554Z,18.77
2023-02-23T05:11:38.846Z,20.83
2023-02-23T05:14:07.526Z,20.97
2023-02-23T05:16:36.307Z,19.47
2023-02-23T05:19:04.990Z,20.10
2023-02-23T05:21:33.648Z,20.80
2023-02-23T05:24:02.278Z,19.47
2023-02-23T05:26:31.375Z,20.10
2023-02-23T05:29:01.937Z,18.67
2023-02-23T05:31:30.728Z,19.30
2023-02-23T05:33:59.507Z,18.47
2023-02-23T05:36:28.379Z,19.27
2023-02-23T05:38:56.819Z,20.63
2023-02-23T05:41:25.556Z,18.97
2023-02-23T05:43:55.737Z,19.60
2023-02-23T05:46:27.810Z,18.30
2023-02-23T05:49:00.930Z,17.67
2023-02-23T05:51:31.549Z,18.17
2023-02-23T05:54:00.379Z,18.10
2023-02-23T05:56:29.521Z,17.27
2023-02-23T05:59:00.095Z,17.53
2023-02-23T06:01:30.595Z,18.00
2023-02-23T06:03:59.369Z,16.77
2023-02-23T06:06:28.681Z,17.33
2023-02-23T06:08:57.713Z,16.27
2023-02-23T06:11:26.613Z,17.40
2023-02-23T06:13:55.561Z,16.57
2023-02-23T06:16:24.410Z,17.03
2023-02-23T06:18:54.684Z,16.87
2023-02-23T06:21:25.223Z,17.40
2023-02-23T06:23:54.674Z,16.57
2023-02-23T06:26:23.306Z,15.93
2023-02-23T06:28:51.858Z,16.70
2023-02-23T06:31:20.843Z,15.97
2023-02-23T06:33:49.642Z,16.37
2023-02-23T06:36:19.970Z,16.30
2023-02-23T06:38:48.478Z,16.63
2023-02-23T06:41:18.128Z,15.67
